Time;durP1;ratioP1;P1;durP2;ratioP2;P2;SDS_P1;SDS_P2;PMS_P1;PMS_P2;Temp;Humidity;BMP_temperature;BMP_pressure;BME280_temperature;BME280_humidity;BME280_pressure;Samples;Min_cycle;Max_cycle;Signal;HPM_P1;HPM_P2
2022/04/26 08:28:45;;;;;;;54.47;28.50;;;8.40;99.90;;;;;;5148391;27;20529;-66
2022/04/26 08:31:11;;;;;;;65.28;31.13;;;8.50;99.90;;;;;;5132220;28;20197;-67
2022/04/26 08:33:37;;;;;;;59.45;29.40;;;8.60;99.90;;;;;;5130784;28;20265;-66
2022/04/26 08:36:03;;;;;;;62.00;29.02;;;8.70;99.90;;;;;;5130926;28;20171;-66
2022/04/26 08:38:29;;;;;;;51.10;27.85;;;8.80;99.90;;;;;;5131989;27;20163;-66
2022/04/26 08:40:55;;;;;;;57.50;28.15;;;8.90;99.90;;;;;;5131817;28;20170;-66
2022/04/26 08:43:21;;;;;;;46.22;25.17;;;9.00;99.90;;;;;;5131780;27;20170;-66
2022/04/26 08:45:47;;;;;;;46.45;25.35;;;9.10;99.90;;;;;;5131721;27;20623;-66
2022/04/26 08:51:00;;;;;;;41.88;24.33;;;8.80;99.90;;;;;;5131884;28;20173;-66
2022/04/26 08:53:30;;;;;;;43.00;25.35;;;8.80;99.90;;;;;;5131752;27;21155;-66
2022/04/26 08:55:57;;;;;;;46.45;25.13;;;8.70;99.90;;;;;;5131480;27;20688;-66
2022/04/26 08:58:25;;;;;;;44.08;24.75;;;8.70;99.90;;;;;;5130240;28;20604;-66
2022/04/26 09:01:03;;;;;;;45.92;27.23;;;8.60;99.90;;;;;;5131451;27;20311;-66
2022/04/26 09:03:33;;;;;;;49.58;27.73;;;8.80;99.90;;;;;;5131558;28;20259;-66
2022/04/26 09:06:07;;;;;;;48.22;26.52;;;9.10;99.90;;;;;;5130321;28;20593;-66
2022/04/26 09:08:34;;;;;;;42.05;25.02;;;9.30;99.90;;;;;;5131371;28;20189;-66
2022/04/26 09:11:00;;;;;;;44.50;27.17;;;9.50;99.90;;;;;;5131295;28;20171;-66
2022/04/26 09:13:26;;;;;;;47.28;26.23;;;9.70;99.90;;;;;;5131170;27;20170;-66
2022/04/26 09:15:55;;;;;;;51.95;28.30;;;9.70;99.90;;;;;;5131175;28;20526;-66
2022/04/26 09:18:24;;;;;;;53.17;28.65;;;9.80;99.90;;;;;;5131197;27;20159;-66
2022/04/26 09:21:11;;;;;;;56.33;30.25;;;9.60;99.90;;;;;;5131231;27;20167;-66
2022/04/26 09:23:39;;;;;;;79.22;37.38;;;9.60;99.90;;;;;;5130925;27;20250;-66
2022/04/26 09:26:12;;;;;;;70.70;36.03;;;9.50;99.90;;;;;;5130963;27;20654;-66
2022/04/26 09:28:43;;;;;;;73.15;38.05;;;9.50;99.90;;;;;;5130712;28;20255;-66
2022/04/26 09:31:19;;;;;;;73.88;36.97;;;9.60;99.90;;;;;;5130961;28;20163;-66
2022/04/26 09:33:51;;;;;;;79.25;38.20;;;9.70;99.90;;;;;;5131020;27;20247;-66
2022/04/26 09:36:18;;;;;;;86.38;39.42;;;9.70;99.90;;;;;;5130863;27;20162;-66
2022/04/26 09:38:55;;;;;;;81.30;41.13;;;9.80;99.90;;;;;;5125048;28;20167;-66
2022/04/26 09:41:21;;;;;;;76.07;38.72;;;9.80;99.90;;;;;;5117150;28;20193;-67
2022/04/26 09:43:59;;;;;;;81.57;38.97;;;9.90;99.90;;;;;;5115780;28;20655;-66
2022/04/26 09:46:24;;;;;;;74.53;38.55;;;10.00;99.90;;;;;;5116661;28;20236;-67
2022/04/26 09:48:53;;;;;;;78.78;37.67;;;10.10;99.90;;;;;;5116537;28;20198;-66
2022/04/26 09:51:19;;;;;;;84.75;37.88;;;10.40;99.90;;;;;;5116472;28;20167;-66
2022/04/26 09:53:45;;;;;;;75.22;38.47;;;10.50;99.90;;;;;;5116423;28;20163;-67
2022/04/26 09:56:13;;;;;;;80.43;39.92;;;10.60;99.90;;;;;;5116418;28;20170;-66
2022/04/26 09:58:40;;;;;;;72.88;37.90;;;10.60;99.90;;;;;;5116448;28;20552;-67
2022/04/26 10:01:05;;;;;;;82.53;39.13;;;10.70;99.90;;;;;;5116357;28;20166;-66
2022/04/26 10:03:36;;;;;;;70.57;37.33;;;10.80;99.90;;;;;;5116254;28;20167;-66
2022/04/26 10:06:05;;;;;;;65.65;35.78;;;10.90;99.90;;;;;;5114697;28;20220;-66
2022/04/26 10:08:34;;;;;;;62.20;35.05;;;10.90;99.90;;;;;;5114827;28;20202;-66
2022/04/26 10:11:01;;;;;;;64.18;34.47;;;10.80;99.90;;;;;;5116145;28;20170;-66
2022/04/26 10:13:32;;;;;;;59.60;36.25;;;10.80;99.90;;;;;;5116099;28;20713;-66
2022/04/26 10:16:24;;;;;;;55.65;31.77;;;10.90;99.90;;;;;;5116058;28;20171;-66
2022/04/26 10:18:51;;;;;;;49.08;29.65;;;10.90;99.90;;;;;;5112187;27;20183;-66
2022/04/26 10:21:22;;;;;;;48.40;30.27;;;11.10;99.90;;;;;;5116026;28;20337;-66
2022/04/26 10:23:51;;;;;;;46.28;27.35;;;11.40;99.90;;;;;;5115834;28;20636;-66
2022/04/26 10:26:27;;;;;;;45.33;28.15;;;11.70;99.90;;;;;;5115930;28;20198;-66
2022/04/26 10:28:58;;;;;;;52.33;29.23;;;11.80;99.90;;;;;;5115769;28;20175;-66
2022/04/26 10:31:37;;;;;;;52.13;27.55;;;12.00;99.90;;;;;;5115782;28;20195;-66
2022/04/26 10:34:16;;;;;;;43.38;28.00;;;12.00;99.90;;;;;;5115718;28;20163;-66
2022/04/26 10:36:42;;;;;;;41.45;26.17;;;12.30;99.90;;;;;;5115705;28;20627;-66
2022/04/26 10:39:08;;;;;;;41.30;24.63;;;12.50;99.90;;;;;;5115596;28;20207;-66
2022/04/26 10:41:47;;;;;;;40.42;25.70;;;12.50;99.90;;;;;;5115476;28;20198;-66
2022/04/26 10:44:15;;;;;;;38.75;24.27;;;12.70;99.90;;;;;;5115698;28;20167;-66
2022/04/26 10:46:42;;;;;;;39.97;25.25;;;12.50;99.90;;;;;;5115307;28;20183;-66
2022/04/26 10:49:23;;;;;;;45.15;26.80;;;12.20;99.90;;;;;;5115422;28;20189;-66
2022/04/26 10:51:53;;;;;;;43.40;27.45;;;12.10;99.90;;;;;;5114293;28;20171;-66
2022/04/26 10:55:03;;;;;;;36.75;25.33;;;12.00;99.90;;;;;;5115314;28;20178;-66
2022/04/26 10:57:34;;;;;;;38.88;24.63;;;11.90;99.90;;;;;;5115303;28;20340;-66
2022/04/26 11:00:03;;;;;;;30.92;22.83;;;12.10;99.90;;;;;;5115166;28;20167;-66
2022/04/26 11:02:31;;;;;;;35.83;25.08;;;12.00;99.90;;;;;;5115124;28;20174;-66
2022/04/26 11:05:09;;;;;;;34.70;23.95;;;12.10;99.90;;;;;;5115120;28;20167;-66
2022/04/26 11:07:35;;;;;;;33.25;22.80;;;12.10;99.90;;;;;;5114924;28;20678;-66
2022/04/26 11:10:02;;;;;;;34.72;24.42;;;12.00;99.90;;;;;;5114974;28;20558;-66
2022/04/26 11:12:29;;;;;;;39.55;23.92;;;11.90;99.90;;;;;;5114948;28;20159;-66
2022/04/26 11:15:02;;;;;;;35.72;23.65;;;12.10;99.90;;;;;;5114869;28;20175;-66
2022/04/26 11:17:29;;;;;;;35.53;23.92;;;12.30;99.90;;;;;;5114617;28;20166;-66
2022/04/26 11:20:08;;;;;;;30.55;20.98;;;12.60;99.90;;;;;;5114858;28;20693;-66
2022/04/26 11:22:49;;;;;;;30.73;20.67;;;12.90;99.90;;;;;;5114701;28;20186;-66
2022/04/26 11:28:12;;;;;;;27.27;19.52;;;13.40;99.90;;;;;;5114543;28;20306;-66
2022/04/26 11:30:37;;;;;;;25.50;19.35;;;13.80;99.90;;;;;;5114664;28;20163;-66
2022/04/26 11:33:04;;;;;;;22.48;18.08;;;13.90;99.90;;;;;;5114417;28;20169;-66
2022/04/26 11:35:31;;;;;;;28.85;18.33;;;13.90;99.90;;;;;;5114372;28;20506;-66
2022/04/26 11:38:06;;;;;;;27.20;17.98;;;13.90;99.90;;;;;;5114322;28;20167;-66
2022/04/26 11:40:36;;;;;;;24.00;18.20;;;13.90;99.90;;;;;;5114431;28;20166;-66
2022/04/26 11:43:10;;;;;;;21.83;17.98;;;13.80;99.90;;;;;;5114396;28;20203;-66
2022/04/26 11:45:37;;;;;;;26.20;17.85;;;13.60;99.90;;;;;;5114255;28;20165;-66
2022/04/26 11:48:07;;;;;;;27.65;18.52;;;13.40;99.90;;;;;;5113915;28;20278;-66
2022/04/26 11:50:33;;;;;;;27.17;20.40;;;13.40;99.90;;;;;;5114106;28;20193;-66
2022/04/26 11:53:09;;;;;;;24.83;18.95;;;13.50;99.90;;;;;;5112958;28;20254;-66
2022/04/26 11:55:36;;;;;;;24.45;18.30;;;13.60;99.90;;;;;;5114168;28;20173;-66
2022/04/26 11:58:06;;;;;;;23.70;18.67;;;13.50;99.90;;;;;;5114141;28;20167;-66
2022/04/26 12:00:32;;;;;;;25.10;18.65;;;13.40;99.90;;;;;;5114013;28;20170;-66
2022/04/26 12:02:57;;;;;;;22.80;18.13;;;13.50;99.90;;;;;;5113822;28;20246;-66
2022/04/26 12:05:23;;;;;;;29.77;19.40;;;13.50;99.90;;;;;;5114014;28;20182;-66
2022/04/26 12:07:50;;;;;;;22.08;18.45;;;13.50;99.90;;;;;;5113992;28;20198;-66
2022/04/26 12:10:35;;;;;;;24.90;17.70;;;13.50;99.90;;;;;;5113939;28;20212;-66
2022/04/26 12:13:02;;;;;;;27.35;17.45;;;13.60;99.90;;;;;;5113880;28;20191;-66
2022/04/26 12:15:35;;;;;;;26.50;17.70;;;13.80;99.90;;;;;;5113936;28;20198;-66
2022/04/26 12:18:15;;;;;;;24.40;17.20;;;14.10;99.90;;;;;;5113929;28;20171;-66
2022/04/26 12:20:55;;;;;;;22.30;16.48;;;14.20;99.90;;;;;;5113847;28;20170;-66
2022/04/26 12:23:23;;;;;;;26.70;17.13;;;14.30;99.90;;;;;;5113798;28;20519;-66
2022/04/26 12:26:02;;;;;;;19.75;16.33;;;14.40;99.90;;;;;;5113793;28;20167;-66
2022/04/26 12:28:29;;;;;;;23.30;17.42;;;14.50;99.90;;;;;;5113553;28;20672;-66
2022/04/26 12:30:54;;;;;;;23.45;17.65;;;14.50;99.90;;;;;;5113791;28;20178;-66
2022/04/26 12:33:32;;;;;;;17.58;15.77;;;14.60;99.90;;;;;;5113800;28;20163;-66
2022/04/26 12:35:59;;;;;;;21.98;16.00;;;14.80;99.90;;;;;;5113590;28;20155;-66
2022/04/26 12:38:25;;;;;;;23.30;16.77;;;14.80;99.90;;;;;;5113709;28;20167;-66
2022/04/26 12:41:05;;;;;;;23.08;17.02;;;14.70;99.90;;;;;;5113645;28;20689;-66
2022/04/26 12:43:32;;;;;;;22.50;16.58;;;14.70;99.90;;;;;;5113647;28;20542;-66
2022/04/26 12:46:06;;;;;;;18.27;14.15;;;14.80;99.90;;;;;;5113547;28;20241;-66
2022/04/26 12:51:27;;;;;;;17.70;14.02;;;14.70;99.90;;;;;;5113804;28;20264;-66
2022/04/26 12:54:05;;;;;;;17.90;14.30;;;14.40;99.90;;;;;;5113566;28;20163;-66
2022/04/26 12:56:31;;;;;;;17.70;14.23;;;14.20;99.90;;;;;;5113558;28;20170;-66
2022/04/26 12:58:56;;;;;;;15.93;13.77;;;14.30;99.90;;;;;;5113461;28;20617;-66
2022/04/26 13:01:22;;;;;;;19.85;15.50;;;14.60;99.90;;;;;;5113414;28;20174;-66
2022/04/26 13:03:47;;;;;;;17.13;13.57;;;14.70;99.90;;;;;;5113455;28;20171;-66
2022/04/26 13:06:15;;;;;;;12.98;11.50;;;15.00;99.90;;;;;;5113441;28;20164;-66
2022/04/26 13:08:43;;;;;;;10.60;9.70;;;15.40;99.90;;;;;;5113280;28;20206;-66
2022/04/26 13:11:09;;;;;;;10.18;9.27;;;15.80;99.90;;;;;;5113383;28;20501;-66
2022/04/26 13:13:40;;;;;;;10.30;9.40;;;16.20;99.90;;;;;;5113785;28;20159;-66
2022/04/26 13:16:07;;;;;;;10.38;9.38;;;16.70;99.90;;;;;;5117279;28;20687;-66
2022/04/26 13:18:33;;;;;;;10.23;9.27;;;17.10;99.90;;;;;;5117174;28;20255;-66
2022/04/26 13:20:59;;;;;;;14.90;9.85;;;17.20;99.90;;;;;;5117137;28;20305;-66
2022/04/26 13:23:26;;;;;;;12.13;9.85;;;17.20;99.90;;;;;;5117100;28;20166;-66
2022/04/26 13:25:52;;;;;;;11.13;10.02;;;17.10;99.90;;;;;;5116990;28;20166;-66
2022/04/26 13:28:19;;;;;;;10.57;9.27;;;16.70;99.90;;;;;;5116841;28;20222;-66
2022/04/26 13:30:44;;;;;;;9.63;8.60;;;16.30;99.90;;;;;;5116959;28;20163;-66
2022/04/26 13:33:11;;;;;;;14.73;10.85;;;15.90;99.90;;;;;;5116906;28;20269;-66
2022/04/26 13:35:39;;;;;;;17.48;12.90;;;15.70;99.90;;;;;;5115622;28;20219;-66
2022/04/26 13:38:09;;;;;;;14.52;13.13;;;15.40;99.90;;;;;;5116805;28;20223;-66
2022/04/26 13:40:37;;;;;;;17.85;14.02;;;15.20;99.90;;;;;;5116690;28;20175;-66
2022/04/26 13:43:03;;;;;;;17.17;15.30;;;14.90;99.90;;;;;;5116655;28;20167;-66
2022/04/26 13:45:28;;;;;;;19.98;15.40;;;14.90;99.90;;;;;;5115370;28;20186;-66
2022/04/26 13:47:54;;;;;;;24.77;14.48;;;15.00;99.90;;;;;;5116414;28;20203;-66
2022/04/26 13:50:19;;;;;;;17.38;13.98;;;14.80;99.90;;;;;;5116604;28;20174;-66
2022/04/26 13:52:45;;;;;;;15.95;14.32;;;14.60;99.90;;;;;;5116569;28;20175;-66
2022/04/26 13:55:15;;;;;;;15.82;14.18;;;14.40;99.90;;;;;;5116458;28;20163;-66
2022/04/26 13:57:43;;;;;;;20.80;14.02;;;14.40;99.90;;;;;;5116407;28;20203;-66
2022/04/26 14:00:11;;;;;;;13.98;12.63;;;14.20;99.90;;;;;;5116375;28;20640;-66
2022/04/26 14:02:37;;;;;;;19.30;14.00;;;14.00;99.90;;;;;;5116352;28;20167;-66
2022/04/26 14:05:04;;;;;;;17.00;15.10;;;13.70;99.90;;;;;;5116320;28;20167;-66
2022/04/26 14:07:30;;;;;;;17.63;15.75;;;13.40;99.90;;;;;;5116026;28;20203;-66
2022/04/26 14:09:55;;;;;;;17.75;15.70;;;13.10;99.90;;;;;;5116263;28;20191;-66
2022/04/26 14:12:21;;;;;;;23.08;17.60;;;12.80;99.90;;;;;;5116186;28;20594;-66
2022/04/26 14:22:59;;;;;;;18.73;15.50;;;12.30;99.90;;;;;;5115810;28;20252;-66
2022/04/26 14:25:25;;;;;;;17.50;15.35;;;12.20;99.90;;;;;;5115258;28;20175;-66
2022/04/26 14:27:51;;;;;;;16.95;15.18;;;12.10;99.90;;;;;;5115307;28;20770;-66
2022/04/26 14:30:17;;;;;;;19.30;14.50;;;11.90;99.90;;;;;;5115719;28;20159;-66
2022/04/26 14:32:44;;;;;;;18.42;15.00;;;11.80;99.90;;;;;;5115609;28;20167;-66
2022/04/26 14:35:10;;;;;;;17.45;15.57;;;11.60;99.90;;;;;;5115602;28;20703;-66
2022/04/26 14:58:09;;;;;;;19.92;16.13;;;11.20;99.90;;;;;;5147742;27;20552;-65
2022/04/26 15:00:36;;;;;;;19.27;15.50;;;11.30;99.90;;;;;;5131650;28;20624;-65
2022/04/26 15:03:03;;;;;;;20.85;15.90;;;11.30;99.90;;;;;;5130062;27;20238;-66
2022/04/26 15:05:29;;;;;;;21.80;15.15;;;11.30;99.90;;;;;;5130067;27;20649;-64
2022/04/26 15:10:42;;;;;;;19.48;14.75;;;11.20;99.90;;;;;;5131617;27;20235;-64
2022/04/26 15:18:39;;;;;;;19.00;16.58;;;11.50;99.90;;;;;;5131433;27;20173;-64
2022/04/26 15:21:05;;;;;;;16.55;14.32;;;11.50;99.90;;;;;;5129989;27;20532;-64
2022/04/26 15:23:33;;;;;;;20.40;15.55;;;11.70;99.90;;;;;;5131257;27;20166;-64
2022/04/26 15:25:58;;;;;;;18.63;16.73;;;11.80;99.90;;;;;;5130216;28;20193;-64
2022/04/26 15:28:24;;;;;;;24.40;17.63;;;11.90;99.90;;;;;;5131314;28;20167;-64
2022/04/26 15:30:50;;;;;;;22.25;16.60;;;12.10;99.90;;;;;;5131475;27;20180;-64
2022/04/26 15:33:17;;;;;;;20.05;15.60;;;12.10;99.90;;;;;;5131320;28;20163;-64
2022/04/26 15:35:42;;;;;;;18.95;16.20;;;12.20;99.90;;;;;;5131108;28;20177;-64
2022/04/26 15:38:10;;;;;;;16.95;15.15;;;12.20;99.90;;;;;;5130093;28;20249;-64
2022/04/26 15:40:37;;;;;;;21.85;15.10;;;12.20;99.90;;;;;;5131164;28;20668;-64
2022/04/26 15:43:05;;;;;;;21.15;17.13;;;12.20;99.90;;;;;;5129959;28;20170;-64
2022/04/26 15:45:30;;;;;;;23.00;16.85;;;12.20;99.90;;;;;;5131021;28;20171;-64
2022/04/26 15:47:56;;;;;;;22.38;16.83;;;12.30;99.90;;;;;;5131079;28;20280;-63
2022/04/26 15:50:21;;;;;;;21.45;16.25;;;12.30;99.90;;;;;;5130979;28;20194;-63
2022/04/26 15:52:47;;;;;;;22.02;17.23;;;12.30;99.90;;;;;;5130887;28;20163;-64
2022/04/26 15:55:13;;;;;;;19.60;16.83;;;12.40;99.90;;;;;;5129766;28;20174;-63
2022/04/26 15:57:39;;;;;;;20.20;16.52;;;12.50;99.90;;;;;;5130593;28;20225;-63
2022/04/26 16:00:05;;;;;;;25.02;17.58;;;12.40;99.90;;;;;;5129382;28;20545;-63
2022/04/26 16:02:31;;;;;;;18.77;16.60;;;12.30;99.90;;;;;;5130834;28;20177;-63
2022/04/26 16:04:57;;;;;;;11.07;10.07;;;12.30;99.90;;;;;;5130790;28;20155;-63
2022/04/26 16:07:22;;;;;;;11.82;10.80;;;12.20;99.90;;;;;;5129338;28;20529;-63
2022/04/26 16:20:45;;;;;;;6.78;6.18;;;11.40;99.90;;;;;;5116358;28;20519;-64
2022/04/26 16:23:11;;;;;;;6.28;5.88;;;11.30;99.90;;;;;;5115292;28;20267;-64
2022/04/26 16:25:36;;;;;;;6.38;5.97;;;11.20;99.90;;;;;;5114954;28;20187;-64
2022/04/26 16:28:03;;;;;;;6.43;5.97;;;11.20;99.90;;;;;;5116240;28;20674;-63
2022/04/26 16:30:30;;;;;;;6.13;5.65;;;11.20;99.90;;;;;;5115061;28;20186;-63
2022/04/26 17:35:57;;;;;;;10.77;8.90;;;10.30;99.90;;;;;;5103245;27;20541;-67
2022/04/26 17:38:22;;;;;;;11.90;8.50;;;10.30;99.90;;;;;;5070920;28;20640;-67
2022/04/26 17:40:48;;;;;;;8.13;7.55;;;10.40;99.90;;;;;;5069396;28;20172;-67
2022/04/26 17:43:14;;;;;;;8.93;8.07;;;10.40;99.90;;;;;;5070642;28;20169;-67
2022/04/26 17:45:41;;;;;;;8.70;7.85;;;10.50;99.90;;;;;;5070621;28;20661;-67
2022/04/26 17:48:07;;;;;;;9.25;8.43;;;10.50;99.90;;;;;;5102923;28;20571;-67
